sensor_id;sensor_type;location;lat;lon;timestamp;P1;durP1;ratioP1;P2;durP2;ratioP2
673;SDS011;319;48.764;9.174;2023-06-14T00:02:06;0.90;;;0.90;;
673;SDS011;319;48.764;9.174;2023-06-14T00:04:35;0.90;;;0.90;;
673;SDS011;319;48.764;9.174;2023-06-14T00:07:03;0.90;;;0.90;;
673;SDS011;319;48.764;9.174;2023-06-14T00:09:33;1.00;;;1.00;;
673;SDS011;319;48.764;9.174;2023-06-14T00:12:00;0.90;;;0.90;;
673;SDS011;319;48.764;9.174;2023-06-14T00:14:26;14.90;;;14.50;;
673;SDS011;319;48.764;9.174;2023-06-14T00:16:53;17.17;;;16.77;;
673;SDS011;319;48.764;9.174;2023-06-14T00:19:23;8.70;;;8.50;;
673;SDS011;319;48.764;9.174;2023-06-14T00:21:51;8.50;;;8.30;;
673;SDS011;319;48.764;9.174;2023-06-14T00:24:19;8.40;;;8.20;;
673;SDS011;319;48.764;9.174;2023-06-14T00:26:46;9.27;;;9.07;;
673;SDS011;319;48.764;9.174;2023-06-14T00:29:13;11.53;;;11.23;;
673;SDS011;319;48.764;9.174;2023-06-14T00:31:40;11.90;;;11.60;;
673;SDS011;319;48.764;9.174;2023-06-14T00:34:07;11.70;;;11.40;;
673;SDS011;319;48.764;9.174;2023-06-14T00:36:34;12.00;;;11.70;;
673;SDS011;319;48.764;9.174;2023-06-14T00:39:02;11.80;;;11.50;;
673;SDS011;319;48.764;9.174;2023-06-14T00:41:29;11.50;;;11.20;;
673;SDS011;319;48.764;9.174;2023-06-14T00:43:56;11.30;;;11.00;;
673;SDS011;319;48.764;9.174;2023-06-14T00:46:27;11.80;;;11.50;;
673;SDS011;319;48.764;9.174;2023-06-14T00:48:54;11.10;;;10.80;;
673;SDS011;319;48.764;9.174;2023-06-14T00:51:22;11.50;;;11.20;;
673;SDS011;319;48.764;9.174;2023-06-14T00:53:50;11.40;;;11.10;;
673;SDS011;319;48.764;9.174;2023-06-14T00:56:18;11.37;;;11.07;;
673;SDS011;319;48.764;9.174;2023-06-14T00:58:45;11.70;;;11.40;;
673;SDS011;319;48.764;9.174;2023-06-14T01:01:13;12.30;;;12.00;;
673;SDS011;319;48.764;9.174;2023-06-14T01:03:40;12.20;;;11.90;;
673;SDS011;319;48.764;9.174;2023-06-14T01:06:10;11.50;;;11.20;;
673;SDS011;319;48.764;9.174;2023-06-14T01:08:53;11.80;;;11.50;;
673;SDS011;319;48.764;9.174;2023-06-14T01:11:28;11.30;;;11.00;;
673;SDS011;319;48.764;9.174;2023-06-14T01:13:59;11.17;;;10.87;;
673;SDS011;319;48.764;9.174;2023-06-14T01:16:29;11.30;;;11.00;;
673;SDS011;319;48.764;9.174;2023-06-14T01:18:57;10.70;;;10.40;;
673;SDS011;319;48.764;9.174;2023-06-14T01:21:25;9.90;;;9.70;;
673;SDS011;319;48.764;9.174;2023-06-14T01:23:54;9.83;;;9.63;;
673;SDS011;319;48.764;9.174;2023-06-14T01:26:21;11.30;;;11.00;;
673;SDS011;319;48.764;9.174;2023-06-14T01:28:49;11.87;;;11.57;;
673;SDS011;319;48.764;9.174;2023-06-14T01:31:18;11.90;;;11.60;;
673;SDS011;319;48.764;9.174;2023-06-14T01:33:47;12.60;;;12.30;;
673;SDS011;319;48.764;9.174;2023-06-14T01:36:16;11.57;;;11.27;;
673;SDS011;319;48.764;9.174;2023-06-14T01:38:44;12.93;;;12.63;;
673;SDS011;319;48.764;9.174;2023-06-14T01:41:14;12.10;;;11.80;;
673;SDS011;319;48.764;9.174;2023-06-14T01:43:42;11.80;;;11.50;;
673;SDS011;319;48.764;9.174;2023-06-14T01:46:09;12.10;;;11.80;;
673;SDS011;319;48.764;9.174;2023-06-14T01:48:36;13.30;;;13.00;;
673;SDS011;319;48.764;9.174;2023-06-14T01:51:04;12.20;;;11.90;;
673;SDS011;319;48.764;9.174;2023-06-14T01:53:30;12.53;;;12.23;;
673;SDS011;319;48.764;9.174;2023-06-14T01:55:57;12.00;;;11.70;;
673;SDS011;319;48.764;9.174;2023-06-14T01:58:26;11.60;;;11.30;;
673;SDS011;319;48.764;9.174;2023-06-14T02:00:53;11.60;;;11.30;;
673;SDS011;319;48.764;9.174;2023-06-14T02:03:21;11.60;;;11.30;;
673;SDS011;319;48.764;9.174;2023-06-14T02:05:48;11.60;;;11.30;;
673;SDS011;319;48.764;9.174;2023-06-14T02:08:15;12.23;;;11.93;;
673;SDS011;319;48.764;9.174;2023-06-14T02:10:42;12.50;;;12.20;;
673;SDS011;319;48.764;9.174;2023-06-14T02:13:09;12.40;;;12.10;;
673;SDS011;319;48.764;9.174;2023-06-14T02:15:38;12.93;;;12.63;;
673;SDS011;319;48.764;9.174;2023-06-14T02:18:05;12.73;;;12.43;;
673;SDS011;319;48.764;9.174;2023-06-14T02:20:32;11.93;;;11.63;;
673;SDS011;319;48.764;9.174;2023-06-14T02:22:59;11.50;;;11.20;;
673;SDS011;319;48.764;9.174;2023-06-14T02:25:26;11.73;;;11.43;;
673;SDS011;319;48.764;9.174;2023-06-14T02:27:53;12.27;;;11.97;;
673;SDS011;319;48.764;9.174;2023-06-14T02:30:21;11.30;;;11.00;;
673;SDS011;319;48.764;9.174;2023-06-14T02:32:49;11.50;;;11.20;;
673;SDS011;319;48.764;9.174;2023-06-14T02:35:18;11.10;;;10.80;;
673;SDS011;319;48.764;9.174;2023-06-14T02:37:45;6.73;;;6.53;;
673;SDS011;319;48.764;9.174;2023-06-14T02:40:12;5.30;;;5.20;;
673;SDS011;319;48.764;9.174;2023-06-14T02:42:39;12.00;;;11.70;;
673;SDS011;319;48.764;9.174;2023-06-14T02:45:06;13.00;;;12.70;;
673;SDS011;319;48.764;9.174;2023-06-14T02:47:34;11.57;;;11.27;;
673;SDS011;319;48.764;9.174;2023-06-14T02:50:03;10.20;;;9.90;;
673;SDS011;319;48.764;9.174;2023-06-14T02:52:30;10.90;;;10.60;;
673;SDS011;319;48.764;9.174;2023-06-14T02:54:58;11.30;;;11.00;;
673;SDS011;319;48.764;9.174;2023-06-14T02:57:25;11.10;;;10.80;;
673;SDS011;319;48.764;9.174;2023-06-14T02:59:52;11.40;;;11.10;;
673;SDS011;319;48.764;9.174;2023-06-14T03:02:19;11.60;;;11.30;;
673;SDS011;319;48.764;9.174;2023-06-14T03:04:45;11.60;;;11.30;;
673;SDS011;319;48.764;9.174;2023-06-14T03:07:17;13.13;;;12.83;;
673;SDS011;319;48.764;9.174;2023-06-14T03:09:45;12.10;;;11.80;;
673;SDS011;319;48.764;9.174;2023-06-14T03:12:12;11.47;;;11.17;;
673;SDS011;319;48.764;9.174;2023-06-14T03:14:40;11.57;;;11.27;;
673;SDS011;319;48.764;9.174;2023-06-14T03:17:07;13.03;;;12.73;;
673;SDS011;319;48.764;9.174;2023-06-14T03:19:34;12.40;;;12.10;;
673;SDS011;319;48.764;9.174;2023-06-14T03:22:01;11.40;;;11.10;;
673;SDS011;319;48.764;9.174;2023-06-14T03:24:30;11.80;;;11.50;;
673;SDS011;319;48.764;9.174;2023-06-14T03:27:04;12.70;;;12.40;;
673;SDS011;319;48.764;9.174;2023-06-14T03:29:31;11.43;;;11.13;;
673;SDS011;319;48.764;9.174;2023-06-14T03:31:58;12.10;;;11.80;;
673;SDS011;319;48.764;9.174;2023-06-14T03:34:26;12.00;;;11.70;;
673;SDS011;319;48.764;9.174;2023-06-14T03:36:53;11.13;;;10.83;;
673;SDS011;319;48.764;9.174;2023-06-14T03:39:20;12.67;;;12.37;;
673;SDS011;319;48.764;9.174;2023-06-14T03:41:49;12.20;;;11.90;;
673;SDS011;319;48.764;9.174;2023-06-14T03:44:16;12.57;;;12.27;;
673;SDS011;319;48.764;9.174;2023-06-14T03:46:43;11.50;;;11.20;;
673;SDS011;319;48.764;9.174;2023-06-14T03:49:10;12.20;;;11.90;;
673;SDS011;319;48.764;9.174;2023-06-14T03:51:37;12.10;;;11.80;;
673;SDS011;319;48.764;9.174;2023-06-14T03:54:05;12.77;;;12.47;;
673;SDS011;319;48.764;9.174;2023-06-14T03:56:32;13.00;;;12.70;;
673;SDS011;319;48.764;9.174;2023-06-14T03:59:01;13.47;;;13.17;;
673;SDS011;319;48.764;9.174;2023-06-14T04:01:28;13.43;;;13.13;;
673;SDS011;319;48.764;9.174;2023-06-14T04:03:56;13.10;;;12.80;;
673;SDS011;319;48.764;9.174;2023-06-14T04:06:23;14.60;;;14.20;;
673;SDS011;319;48.764;9.174;2023-06-14T04:08:57;14.17;;;13.77;;
673;SDS011;319;48.764;9.174;2023-06-14T04:11:28;13.73;;;13.33;;
673;SDS011;319;48.764;9.174;2023-06-14T04:13:58;14.03;;;13.63;;
673;SDS011;319;48.764;9.174;2023-06-14T04:16:28;15.77;;;15.37;;
673;SDS011;319;48.764;9.174;2023-06-14T04:18:55;14.27;;;13.87;;
673;SDS011;319;48.764;9.174;2023-06-14T04:21:23;16.93;;;16.53;;
673;SDS011;319;48.764;9.174;2023-06-14T04:23:50;17.23;;;16.83;;
673;SDS011;319;48.764;9.174;2023-06-14T04:26:20;17.60;;;17.10;;
673;SDS011;319;48.764;9.174;2023-06-14T04:28:48;15.90;;;15.50;;
673;SDS011;319;48.764;9.174;2023-06-14T04:31:17;16.30;;;15.90;;
673;SDS011;319;48.764;9.174;2023-06-14T04:33:44;14.90;;;14.50;;
673;SDS011;319;48.764;9.174;2023-06-14T04:36:11;15.20;;;14.80;;
673;SDS011;319;48.764;9.174;2023-06-14T04:38:38;17.50;;;17.00;;
673;SDS011;319;48.764;9.174;2023-06-14T04:41:06;13.83;;;13.43;;
673;SDS011;319;48.764;9.174;2023-06-14T04:43:36;0.80;;;0.80;;
673;SDS011;319;48.764;9.174;2023-06-14T04:46:04;0.80;;;0.80;;
673;SDS011;319;48.764;9.174;2023-06-14T04:48:36;0.80;;;0.80;;
673;SDS011;319;48.764;9.174;2023-06-14T04:51:04;0.80;;;0.80;;
673;SDS011;319;48.764;9.174;2023-06-14T04:53:31;0.70;;;0.70;;
673;SDS011;319;48.764;9.174;2023-06-14T04:55:59;0.80;;;0.80;;
673;SDS011;319;48.764;9.174;2023-06-14T04:58:26;0.80;;;0.80;;
673;SDS011;319;48.764;9.174;2023-06-14T05:00:53;0.70;;;0.70;;
673;SDS011;319;48.764;9.174;2023-06-14T05:03:21;0.80;;;0.80;;
673;SDS011;319;48.764;9.174;2023-06-14T05:05:50;0.80;;;0.80;;
673;SDS011;319;48.764;9.174;2023-06-14T05:08:18;0.80;;;0.80;;
673;SDS011;319;48.764;9.174;2023-06-14T05:10:48;0.80;;;0.80;;
673;SDS011;319;48.764;9.174;2023-06-14T05:13:15;0.80;;;0.80;;
673;SDS011;319;48.764;9.174;2023-06-14T05:15:42;1.20;;;1.20;;
673;SDS011;319;48.764;9.174;2023-06-14T05:18:09;9.40;;;9.20;;
673;SDS011;319;48.764;9.174;2023-06-14T05:20:38;6.20;;;6.10;;
673;SDS011;319;48.764;9.174;2023-06-14T05:23:08;1.67;;;1.67;;
673;SDS011;319;48.764;9.174;2023-06-14T05:25:40;7.70;;;7.50;;
673;SDS011;319;48.764;9.174;2023-06-14T05:28:08;8.57;;;8.37;;
673;SDS011;319;48.764;9.174;2023-06-14T05:30:35;7.70;;;7.50;;
673;SDS011;319;48.764;9.174;2023-06-14T05:33:02;2.10;;;2.10;;
673;SDS011;319;48.764;9.174;2023-06-14T05:35:29;1.93;;;1.93;;
673;SDS011;319;48.764;9.174;2023-06-14T05:37:56;2.30;;;2.30;;
673;SDS011;319;48.764;9.174;2023-06-14T05:40:24;1.90;;;1.90;;
673;SDS011;319;48.764;9.174;2023-06-14T05:42:51;1.67;;;1.67;;
673;SDS011;319;48.764;9.174;2023-06-14T05:45:18;1.90;;;1.90;;
673;SDS011;319;48.764;9.174;2023-06-14T05:47:45;1.60;;;1.60;;
673;SDS011;319;48.764;9.174;2023-06-14T05:50:12;1.80;;;1.80;;
673;SDS011;319;48.764;9.174;2023-06-14T05:52:39;1.90;;;1.90;;
673;SDS011;319;48.764;9.174;2023-06-14T05:55:06;1.90;;;1.90;;
673;SDS011;319;48.764;9.174;2023-06-14T05:57:35;0.80;;;0.80;;
673;SDS011;319;48.764;9.174;2023-06-14T06:00:02;0.80;;;0.80;;
673;SDS011;319;48.764;9.174;2023-06-14T06:02:35;0.90;;;0.90;;
673;SDS011;319;48.764;9.174;2023-06-14T06:05:02;1.20;;;1.20;;
673;SDS011;319;48.764;9.174;2023-06-14T06:07:31;1.70;;;1.70;;
673;SDS011;319;48.764;9.174;2023-06-14T06:09:58;2.37;;;2.33;;
673;SDS011;319;48.764;9.174;2023-06-14T06:12:25;5.63;;;5.53;;
673;SDS011;319;48.764;9.174;2023-06-14T06:14:53;15.17;;;14.77;;
673;SDS011;319;48.764;9.174;2023-06-14T06:17:20;8.77;;;8.57;;
673;SDS011;319;48.764;9.174;2023-06-14T06:19:47;0.70;;;0.70;;
673;SDS011;319;48.764;9.174;2023-06-14T06:22:14;0.70;;;0.70;;
673;SDS011;319;48.764;9.174;2023-06-14T06:24:42;0.80;;;0.80;;
673;SDS011;319;48.764;9.174;2023-06-14T06:27:08;0.70;;;0.70;;
673;SDS011;319;48.764;9.174;2023-06-14T06:29:37;0.70;;;0.70;;
673;SDS011;319;48.764;9.174;2023-06-14T06:32:06;0.60;;;0.60;;
673;SDS011;319;48.764;9.174;2023-06-14T06:34:33;0.70;;;0.70;;
673;SDS011;319;48.764;9.174;2023-06-14T06:37:02;0.70;;;0.70;;
673;SDS011;319;48.764;9.174;2023-06-14T06:39:29;0.70;;;0.70;;
673;SDS011;319;48.764;9.174;2023-06-14T06:41:56;0.75;;;0.75;;
673;SDS011;319;48.764;9.174;2023-06-14T06:44:23;0.73;;;0.73;;
673;SDS011;319;48.764;9.174;2023-06-14T06:46:50;0.70;;;0.70;;
673;SDS011;319;48.764;9.174;2023-06-14T06:49:18;0.70;;;0.70;;
673;SDS011;319;48.764;9.174;2023-06-14T06:51:57;0.70;;;0.70;;
673;SDS011;319;48.764;9.174;2023-06-14T06:54:25;0.70;;;0.70;;
673;SDS011;319;48.764;9.174;2023-06-14T06:56:52;0.70;;;0.70;;
673;SDS011;319;48.764;9.174;2023-06-14T06:59:19;0.70;;;0.70;;
673;SDS011;319;48.764;9.174;2023-06-14T07:01:47;0.90;;;0.90;;
673;SDS011;319;48.764;9.174;2023-06-14T07:04:13;0.70;;;0.70;;
673;SDS011;319;48.764;9.174;2023-06-14T07:06:42;0.70;;;0.70;;
673;SDS011;319;48.764;9.174;2023-06-14T07:09:09;0.70;;;0.70;;
673;SDS011;319;48.764;9.174;2023-06-14T07:11:37;0.70;;;0.70;;
673;SDS011;319;48.764;9.174;2023-06-14T07:14:04;0.70;;;0.70;;
673;SDS011;319;48.764;9.174;2023-06-14T07:16:31;0.70;;;0.70;;
673;SDS011;319;48.764;9.174;2023-06-14T07:18:58;0.70;;;0.70;;
673;SDS011;319;48.764;9.174;2023-06-14T07:21:25;0.60;;;0.60;;
673;SDS011;319;48.764;9.174;2023-06-14T07:23:54;0.70;;;0.70;;
673;SDS011;319;48.764;9.174;2023-06-14T07:26:21;0.70;;;0.70;;
673;SDS011;319;48.764;9.174;2023-06-14T07:28:48;0.60;;;0.60;;
673;SDS011;319;48.764;9.174;2023-06-14T07:31:16;0.70;;;0.70;;
673;SDS011;319;48.764;9.174;2023-06-14T07:33:44;0.63;;;0.63;;
673;SDS011;319;48.764;9.174;2023-06-14T07:36:11;0.70;;;0.70;;
673;SDS011;319;48.764;9.174;2023-06-14T07:38:38;0.70;;;0.70;;
673;SDS011;319;48.764;9.174;2023-06-14T07:41:06;0.80;;;0.80;;
673;SDS011;319;48.764;9.174;2023-06-14T07:43:34;0.70;;;0.70;;
673;SDS011;319;48.764;9.174;2023-06-14T07:46:01;0.70;;;0.70;;
673;SDS011;319;48.764;9.174;2023-06-14T07:48:28;0.80;;;0.80;;
673;SDS011;319;48.764;9.174;2023-06-14T07:50:55;0.60;;;0.60;;
673;SDS011;319;48.764;9.174;2023-06-14T07:53:22;0.70;;;0.70;;
673;SDS011;319;48.764;9.174;2023-06-14T07:55:49;0.70;;;0.70;;
673;SDS011;319;48.764;9.174;2023-06-14T07:58:17;0.70;;;0.70;;
673;SDS011;319;48.764;9.174;2023-06-14T08:00:44;0.70;;;0.70;;
673;SDS011;319;48.764;9.174;2023-06-14T08:03:15;0.70;;;0.70;;
673;SDS011;319;48.764;9.174;2023-06-14T08:05:43;0.70;;;0.70;;
673;SDS011;319;48.764;9.174;2023-06-14T08:08:10;0.70;;;0.70;;
673;SDS011;319;48.764;9.174;2023-06-14T08:10:43;0.70;;;0.70;;
673;SDS011;319;48.764;9.174;2023-06-14T08:13:11;0.70;;;0.70;;
673;SDS011;319;48.764;9.174;2023-06-14T08:15:39;0.70;;;0.70;;
673;SDS011;319;48.764;9.174;2023-06-14T08:18:06;0.70;;;0.70;;
673;SDS011;319;48.764;9.174;2023-06-14T08:20:35;0.90;;;0.90;;
673;SDS011;319;48.764;9.174;2023-06-14T08:23:02;0.70;;;0.70;;
673;SDS011;319;48.764;9.174;2023-06-14T08:25:30;0.70;;;0.70;;
673;SDS011;319;48.764;9.174;2023-06-14T08:27:57;0.70;;;0.70;;
673;SDS011;319;48.764;9.174;2023-06-14T08:30:24;0.70;;;0.70;;
673;SDS011;319;48.764;9.174;2023-06-14T08:32:53;0.80;;;0.80;;
673;SDS011;319;48.764;9.174;2023-06-14T08:35:21;0.60;;;0.60;;
673;SDS011;319;48.764;9.174;2023-06-14T08:37:48;0.70;;;0.70;;
673;SDS011;319;48.764;9.174;2023-06-14T08:40:19;0.70;;;0.70;;
673;SDS011;319;48.764;9.174;2023-06-14T08:42:50;0.70;;;0.70;;
673;SDS011;319;48.764;9.174;2023-06-14T08:45:18;0.70;;;0.70;;
673;SDS011;319;48.764;9.174;2023-06-14T08:47:46;0.80;;;0.80;;
673;SDS011;319;48.764;9.174;2023-06-14T08:50:19;0.70;;;0.70;;
673;SDS011;319;48.764;9.174;2023-06-14T08:52:50;0.70;;;0.70;;
673;SDS011;319;48.764;9.174;2023-06-14T08:55:22;0.60;;;0.60;;
673;SDS011;319;48.764;9.174;2023-06-14T08:57:53;0.70;;;0.70;;
673;SDS011;319;48.764;9.174;2023-06-14T09:00:22;0.70;;;0.70;;
673;SDS011;319;48.764;9.174;2023-06-14T09:02:50;0.70;;;0.70;;
673;SDS011;319;48.764;9.174;2023-06-14T09:05:24;0.70;;;0.70;;
673;SDS011;319;48.764;9.174;2023-06-14T09:07:51;0.70;;;0.70;;
673;SDS011;319;48.764;9.174;2023-06-14T09:10:20;0.80;;;0.80;;
673;SDS011;319;48.764;9.174;2023-06-14T09:12:47;0.70;;;0.70;;
673;SDS011;319;48.764;9.174;2023-06-14T09:15:14;0.70;;;0.70;;
673;SDS011;319;48.764;9.174;2023-06-14T09:17:42;0.60;;;0.60;;
673;SDS011;319;48.764;9.174;2023-06-14T09:20:09;0.70;;;0.70;;
673;SDS011;319;48.764;9.174;2023-06-14T09:22:39;0.80;;;0.80;;
673;SDS011;319;48.764;9.174;2023-06-14T09:25:07;0.70;;;0.70;;
673;SDS011;319;48.764;9.174;2023-06-14T09:27:34;0.80;;;0.80;;
673;SDS011;319;48.764;9.174;2023-06-14T09:30:05;0.70;;;0.70;;
673;SDS011;319;48.764;9.174;2023-06-14T09:32:36;0.70;;;0.70;;
673;SDS011;319;48.764;9.174;2023-06-14T09:35:03;0.80;;;0.80;;
673;SDS011;319;48.764;9.174;2023-06-14T09:37:32;0.70;;;0.70;;
673;SDS011;319;48.764;9.174;2023-06-14T09:40:00;0.77;;;0.77;;
673;SDS011;319;48.764;9.174;2023-06-14T09:42:29;0.70;;;0.70;;
673;SDS011;319;48.764;9.174;2023-06-14T09:44:57;0.63;;;0.63;;
673;SDS011;319;48.764;9.174;2023-06-14T09:47:24;0.73;;;0.73;;
673;SDS011;319;48.764;9.174;2023-06-14T09:49:51;1.67;;;1.67;;
673;SDS011;319;48.764;9.174;2023-06-14T09:52:20;0.80;;;0.80;;
673;SDS011;319;48.764;9.174;2023-06-14T09:54:49;0.80;;;0.80;;
673;SDS011;319;48.764;9.174;2023-06-14T09:57:20;0.80;;;0.80;;
673;SDS011;319;48.764;9.174;2023-06-14T09:59:48;0.80;;;0.80;;
673;SDS011;319;48.764;9.174;2023-06-14T10:02:21;0.80;;;0.80;;
673;SDS011;319;48.764;9.174;2023-06-14T10:04:56;0.80;;;0.80;;
673;SDS011;319;48.764;9.174;2023-06-14T10:07:31;0.80;;;0.80;;
673;SDS011;319;48.764;9.174;2023-06-14T10:10:01;0.80;;;0.80;;
673;SDS011;319;48.764;9.174;2023-06-14T10:12:31;0.70;;;0.70;;
673;SDS011;319;48.764;9.174;2023-06-14T10:14:58;0.70;;;0.70;;
673;SDS011;319;48.764;9.174;2023-06-14T10:17:30;0.70;;;0.70;;
673;SDS011;319;48.764;9.174;2023-06-14T10:20:09;0.70;;;0.70;;
673;SDS011;319;48.764;9.174;2023-06-14T10:22:44;1.00;;;1.00;;
673;SDS011;319;48.764;9.174;2023-06-14T10:25:25;0.77;;;0.77;;
673;SDS011;319;48.764;9.174;2023-06-14T10:28:03;0.80;;;0.80;;
673;SDS011;319;48.764;9.174;2023-06-14T10:31:03;0.70;;;0.70;;
673;SDS011;319;48.764;9.174;2023-06-14T10:33:31;0.80;;;0.80;;
673;SDS011;319;48.764;9.174;2023-06-14T10:36:08;0.80;;;0.80;;
673;SDS011;319;48.764;9.174;2023-06-14T10:38:36;0.70;;;0.70;;
673;SDS011;319;48.764;9.174;2023-06-14T10:41:04;0.67;;;0.67;;
673;SDS011;319;48.764;9.174;2023-06-14T10:43:33;0.70;;;0.70;;
673;SDS011;319;48.764;9.174;2023-06-14T10:48:42;0.70;;;0.70;;
673;SDS011;319;48.764;9.174;2023-06-14T10:51:17;0.70;;;0.70;;
673;SDS011;319;48.764;9.174;2023-06-14T10:53:47;0.80;;;0.80;;
673;SDS011;319;48.764;9.174;2023-06-14T10:59:01;0.80;;;0.80;;
673;SDS011;319;48.764;9.174;2023-06-14T11:01:38;5.77;;;5.67;;
673;SDS011;319;48.764;9.174;2023-06-14T11:04:11;3.60;;;3.50;;
673;SDS011;319;48.764;9.174;2023-06-14T11:06:44;5.37;;;5.27;;
673;SDS011;319;48.764;9.174;2023-06-14T11:12:17;0.80;;;0.80;;
673;SDS011;319;48.764;9.174;2023-06-14T11:14:46;0.80;;;0.80;;
673;SDS011;319;48.764;9.174;2023-06-14T11:17:34;0.80;;;0.80;;
673;SDS011;319;48.764;9.174;2023-06-14T11:20:34;0.70;;;0.70;;
673;SDS011;319;48.764;9.174;2023-06-14T11:23:05;0.60;;;0.60;;
673;SDS011;319;48.764;9.174;2023-06-14T11:25:33;0.73;;;0.73;;
673;SDS011;319;48.764;9.174;2023-06-14T11:28:00;0.70;;;0.70;;
673;SDS011;319;48.764;9.174;2023-06-14T11:30:47;1.17;;;1.17;;
673;SDS011;319;48.764;9.174;2023-06-14T11:33:16;1.60;;;1.60;;
673;SDS011;319;48.764;9.174;2023-06-14T11:35:44;0.80;;;0.80;;
673;SDS011;319;48.764;9.174;2023-06-14T11:38:11;0.80;;;0.80;;
673;SDS011;319;48.764;9.174;2023-06-14T11:40:38;0.80;;;0.80;;
673;SDS011;319;48.764;9.174;2023-06-14T11:43:05;0.80;;;0.80;;
673;SDS011;319;48.764;9.174;2023-06-14T11:45:32;0.80;;;0.80;;
673;SDS011;319;48.764;9.174;2023-06-14T11:48:00;4.27;;;4.17;;
673;SDS011;319;48.764;9.174;2023-06-14T11:50:27;0.80;;;0.80;;
673;SDS011;319;48.764;9.174;2023-06-14T11:52:54;0.80;;;0.80;;
673;SDS011;319;48.764;9.174;2023-06-14T11:55:22;0.90;;;0.90;;
673;SDS011;319;48.764;9.174;2023-06-14T11:57:50;0.83;;;0.83;;
673;SDS011;319;48.764;9.174;2023-06-14T12:00:17;1.30;;;1.30;;
673;SDS011;319;48.764;9.174;2023-06-14T12:02:52;0.70;;;0.70;;
673;SDS011;319;48.764;9.174;2023-06-14T12:05:22;2.60;;;2.50;;
673;SDS011;319;48.764;9.174;2023-06-14T12:07:49;2.80;;;2.70;;
673;SDS011;319;48.764;9.174;2023-06-14T12:10:18;4.20;;;4.10;;
673;SDS011;319;48.764;9.174;2023-06-14T12:12:45;0.80;;;0.80;;
673;SDS011;319;48.764;9.174;2023-06-14T12:15:12;0.80;;;0.80;;
673;SDS011;319;48.764;9.174;2023-06-14T12:17:39;0.70;;;0.70;;
673;SDS011;319;48.764;9.174;2023-06-14T12:20:31;0.80;;;0.80;;
673;SDS011;319;48.764;9.174;2023-06-14T12:23:08;0.70;;;0.70;;
673;SDS011;319;48.764;9.174;2023-06-14T12:25:40;0.80;;;0.80;;
673;SDS011;319;48.764;9.174;2023-06-14T12:28:10;0.70;;;0.70;;
673;SDS011;319;48.764;9.174;2023-06-14T12:30:38;0.70;;;0.70;;
673;SDS011;319;48.764;9.174;2023-06-14T12:33:08;0.70;;;0.70;;
673;SDS011;319;48.764;9.174;2023-06-14T12:35:38;0.80;;;0.80;;
673;SDS011;319;48.764;9.174;2023-06-14T12:38:06;0.80;;;0.80;;
673;SDS011;319;48.764;9.174;2023-06-14T12:40:34;1.00;;;1.00;;
673;SDS011;319;48.764;9.174;2023-06-14T12:43:20;0.90;;;0.90;;
673;SDS011;319;48.764;9.174;2023-06-14T12:45:51;0.80;;;0.80;;
673;SDS011;319;48.764;9.174;2023-06-14T12:48:19;0.80;;;0.80;;
673;SDS011;319;48.764;9.174;2023-06-14T12:50:49;0.70;;;0.70;;
673;SDS011;319;48.764;9.174;2023-06-14T12:53:17;0.70;;;0.70;;
673;SDS011;319;48.764;9.174;2023-06-14T12:55:44;0.80;;;0.80;;
673;SDS011;319;48.764;9.174;2023-06-14T12:58:11;0.70;;;0.70;;
673;SDS011;319;48.764;9.174;2023-06-14T13:00:39;0.70;;;0.70;;
673;SDS011;319;48.764;9.174;2023-06-14T13:03:06;0.80;;;0.80;;
673;SDS011;319;48.764;9.174;2023-06-14T13:05:33;0.70;;;0.70;;
673;SDS011;319;48.764;9.174;2023-06-14T13:08:01;0.70;;;0.70;;
673;SDS011;319;48.764;9.174;2023-06-14T13:10:28;0.77;;;0.77;;
673;SDS011;319;48.764;9.174;2023-06-14T13:12:55;0.80;;;0.80;;
673;SDS011;319;48.764;9.174;2023-06-14T13:15:25;0.70;;;0.70;;
673;SDS011;319;48.764;9.174;2023-06-14T13:17:52;0.80;;;0.80;;
673;SDS011;319;48.764;9.174;2023-06-14T13:20:19;0.70;;;0.70;;
673;SDS011;319;48.764;9.174;2023-06-14T13:22:46;0.70;;;0.70;;
673;SDS011;319;48.764;9.174;2023-06-14T13:25:14;0.70;;;0.70;;
673;SDS011;319;48.764;9.174;2023-06-14T13:27:41;0.70;;;0.70;;
673;SDS011;319;48.764;9.174;2023-06-14T13:30:08;0.70;;;0.70;;
673;SDS011;319;48.764;9.174;2023-06-14T13:32:36;0.80;;;0.80;;
673;SDS011;319;48.764;9.174;2023-06-14T13:35:03;0.80;;;0.80;;
673;SDS011;319;48.764;9.174;2023-06-14T13:37:30;0.80;;;0.80;;
673;SDS011;319;48.764;9.174;2023-06-14T13:39:57;0.70;;;0.70;;
673;SDS011;319;48.764;9.174;2023-06-14T13:42:27;0.70;;;0.70;;
673;SDS011;319;48.764;9.174;2023-06-14T13:44:56;0.70;;;0.70;;
673;SDS011;319;48.764;9.174;2023-06-14T13:47:26;0.70;;;0.70;;
673;SDS011;319;48.764;9.174;2023-06-14T13:49:53;0.70;;;0.70;;
673;SDS011;319;48.764;9.174;2023-06-14T13:52:20;0.70;;;0.70;;
673;SDS011;319;48.764;9.174;2023-06-14T13:54:48;0.80;;;0.80;;
673;SDS011;319;48.764;9.174;2023-06-14T13:57:15;0.70;;;0.70;;
673;SDS011;319;48.764;9.174;2023-06-14T13:59:47;0.80;;;0.80;;
673;SDS011;319;48.764;9.174;2023-06-14T14:02:14;0.70;;;0.70;;
673;SDS011;319;48.764;9.174;2023-06-14T14:04:41;0.80;;;0.80;;
673;SDS011;319;48.764;9.174;2023-06-14T14:07:08;0.70;;;0.70;;
673;SDS011;319;48.764;9.174;2023-06-14T14:09:36;0.70;;;0.70;;
673;SDS011;319;48.764;9.174;2023-06-14T14:12:07;0.70;;;0.70;;
673;SDS011;319;48.764;9.174;2023-06-14T14:14:35;0.73;;;0.73;;
673;SDS011;319;48.764;9.174;2023-06-14T14:17:04;0.70;;;0.70;;
673;SDS011;319;48.764;9.174;2023-06-14T14:19:31;0.70;;;0.70;;
673;SDS011;319;48.764;9.174;2023-06-14T14:21:59;0.77;;;0.77;;
673;SDS011;319;48.764;9.174;2023-06-14T14:24:27;0.80;;;0.80;;
673;SDS011;319;48.764;9.174;2023-06-14T14:26:53;0.80;;;0.80;;
673;SDS011;319;48.764;9.174;2023-06-14T14:29:24;0.80;;;0.80;;
673;SDS011;319;48.764;9.174;2023-06-14T14:31:54;0.80;;;0.80;;
673;SDS011;319;48.764;9.174;2023-06-14T14:34:23;0.70;;;0.70;;
673;SDS011;319;48.764;9.174;2023-06-14T14:36:50;0.70;;;0.70;;
673;SDS011;319;48.764;9.174;2023-06-14T14:39:17;0.80;;;0.80;;
673;SDS011;319;48.764;9.174;2023-06-14T14:41:44;0.70;;;0.70;;
673;SDS011;319;48.764;9.174;2023-06-14T14:44:32;0.70;;;0.70;;
673;SDS011;319;48.764;9.174;2023-06-14T14:50:53;0.70;;;0.70;;
673;SDS011;319;48.764;9.174;2023-06-14T14:56:09;0.70;;;0.70;;
673;SDS011;319;48.764;9.174;2023-06-14T14:58:37;0.70;;;0.70;;
673;SDS011;319;48.764;9.174;2023-06-14T15:01:04;0.70;;;0.70;;
673;SDS011;319;48.764;9.174;2023-06-14T15:03:32;0.80;;;0.80;;
673;SDS011;319;48.764;9.174;2023-06-14T15:06:00;0.80;;;0.80;;
673;SDS011;319;48.764;9.174;2023-06-14T15:08:27;0.80;;;0.80;;
673;SDS011;319;48.764;9.174;2023-06-14T15:10:54;0.80;;;0.80;;
673;SDS011;319;48.764;9.174;2023-06-14T15:13:21;0.70;;;0.70;;
673;SDS011;319;48.764;9.174;2023-06-14T15:15:49;0.77;;;0.77;;
673;SDS011;319;48.764;9.174;2023-06-14T15:18:16;0.80;;;0.80;;
673;SDS011;319;48.764;9.174;2023-06-14T15:20:45;0.80;;;0.80;;
673;SDS011;319;48.764;9.174;2023-06-14T15:23:14;0.80;;;0.80;;
673;SDS011;319;48.764;9.174;2023-06-14T15:25:44;0.80;;;0.80;;
673;SDS011;319;48.764;9.174;2023-06-14T15:28:17;0.80;;;0.80;;
673;SDS011;319;48.764;9.174;2023-06-14T15:30:49;0.70;;;0.70;;
673;SDS011;319;48.764;9.174;2023-06-14T15:33:16;0.80;;;0.80;;
673;SDS011;319;48.764;9.174;2023-06-14T15:35:46;0.80;;;0.80;;
673;SDS011;319;48.764;9.174;2023-06-14T15:38:15;0.70;;;0.70;;
673;SDS011;319;48.764;9.174;2023-06-14T15:40:42;0.70;;;0.70;;
673;SDS011;319;48.764;9.174;2023-06-14T15:43:09;0.80;;;0.80;;
673;SDS011;319;48.764;9.174;2023-06-14T15:45:36;0.80;;;0.80;;
673;SDS011;319;48.764;9.174;2023-06-14T15:48:04;0.80;;;0.80;;
673;SDS011;319;48.764;9.174;2023-06-14T15:50:33;0.70;;;0.70;;
673;SDS011;319;48.764;9.174;2023-06-14T15:53:00;0.70;;;0.70;;
673;SDS011;319;48.764;9.174;2023-06-14T15:55:28;0.80;;;0.80;;
673;SDS011;319;48.764;9.174;2023-06-14T15:57:55;0.70;;;0.70;;
673;SDS011;319;48.764;9.174;2023-06-14T16:00:22;0.70;;;0.70;;
673;SDS011;319;48.764;9.174;2023-06-14T16:02:50;0.80;;;0.80;;